Time,TemperatureF,DewpointF,PressureIn,WindDirection,WindDirectionDegrees,WindSpeedMPH,WindSpeedGustMPH,Humidity,HourlyPrecipIn,Conditions,Clouds,dailyrainin,SolarRadiationWatts/m^2,SoftwareType,DateUTC
2013-02-22 00:05:00,32.5,21.3,30.01,NW,321,0.0,15.0,63,0.00,,,0.00,0,Wunderground v.1.15,2013-02-22 07:05:00,
2013-02-22 00:15:00,32.3,21.1,30.01,NW,321,0.0,15.0,63,0.00,,,0.00,0,Wunderground v.1.15,2013-02-22 07:15:00,
2013-02-22 00:20:00,32.0,21.2,30.02,NW,319,0.0,15.0,64,0.00,,,0.00,0,Wunderground v.1.15,2013-02-22 07:20:00,
2013-02-22 00:30:00,31.6,21.2,30.02,NW,319,0.0,15.0,65,0.00,,,0.00,0,Wunderground v.1.15,2013-02-22 07:30:00,
2013-02-22 00:40:00,31.3,21.3,30.03,NW,319,0.0,15.0,66,0.00,,,0.00,0,Wunderground v.1.15,2013-02-22 07:40:00,
2013-02-22 00:45:00,31.2,21.5,30.03,NW,319,0.0,15.0,67,0.00,,,0.00,0,Wunderground v.1.15,2013-02-22 07:45:00,
2013-02-22 00:55:00,31.5,22.5,30.02,NW,325,0.0,15.0,69,0.00,,,0.00,0,Wunderground v.1.15,2013-02-22 07:55:00,
2013-02-22 01:00:00,31.8,22.8,30.03,NW,306,0.0,15.0,69,0.00,,,0.00,0,Wunderground v.1.15,2013-02-22 08:00:00,
2013-02-22 01:10:00,31.9,22.5,30.03,NW,304,0.0,15.0,68,0.00,,,0.00,0,Wunderground v.1.15,2013-02-22 08:10:00,
2013-02-22 01:20:00,31.7,23.0,30.03,NW,304,0.0,15.0,70,0.00,,,0.00,0,Wunderground v.1.15,2013-02-22 08:20:00,
2013-02-22 01:25:00,31.7,23.0,30.03,NW,304,0.0,15.0,70,0.00,,,0.00,0,Wunderground v.1.15,2013-02-22 08:25:00,
2013-02-22 01:35:00,31.6,22.9,30.03,NW,304,0.0,15.0,70,0.00,,,0.00,0,Wunderground v.1.15,2013-02-22 08:35:00,
2013-02-22 01:45:00,31.4,22.7,30.03,WNW,303,0.0,15.0,70,0.00,,,0.00,0,Wunderground v.1.15,2013-02-22 08:45:00,
2013-02-22 01:50:00,31.3,22.6,30.03,NW,304,0.0,15.0,70,0.00,,,0.00,0,Wunderground v.1.15,2013-02-22 08:50:00,
2013-02-22 02:00:00,31.2,23.5,30.02,NW,321,0.0,15.0,73,0.00,,,0.00,0,Wunderground v.1.15,2013-02-22 09:00:00,
2013-02-22 02:05:00,31.3,23.6,30.03,NW,321,0.0,15.0,73,0.00,,,0.00,0,Wunderground v.1.15,2013-02-22 09:05:00,
2013-02-22 02:15:00,31.4,23.4,30.03,WNW,294,0.0,15.0,72,0.00,,,0.00,0,Wunderground v.1.15,2013-02-22 09:15:00,
2013-02-22 02:20:00,31.4,23.1,30.03,West,281,0.0,15.0,71,0.00,,,0.00,0,Wunderground v.1.15,2013-02-22 09:20:00,
2013-02-22 02:30:00,31.2,22.2,30.02,WSW,256,0.0,15.0,69,0.00,,,0.00,0,Wunderground v.1.15,2013-02-22 09:30:00,
2013-02-22 02:40:00,31.3,21.3,30.02,West,273,0.0,15.0,66,0.00,,,0.00,0,Wunderground v.1.15,2013-02-22 09:40:00,
2013-02-22 02:50:00,31.2,21.5,30.02,West,273,0.0,15.0,67,0.00,,,0.00,0,Wunderground v.1.15,2013-02-22 09:50:00,
2013-02-22 02:55:00,31.1,21.4,30.02,West,273,0.0,15.0,67,0.00,,,0.00,0,Wunderground v.1.15,2013-02-22 09:55:00,
2013-02-22 03:05:00,31.1,21.4,30.02,West,274,0.0,15.0,67,0.00,,,0.00,0,Wunderground v.1.15,2013-02-22 10:05:00,
2013-02-22 03:15:00,31.0,21.3,30.02,West,274,0.0,15.0,67,0.00,,,0.00,0,Wunderground v.1.15,2013-02-22 10:15:00,
2013-02-22 03:20:00,31.0,21.3,30.02,West,274,0.0,15.0,67,0.00,,,0.00,0,Wunderground v.1.15,2013-02-22 10:20:00,
2013-02-22 03:30:00,30.9,21.2,30.02,West,274,0.0,15.0,67,0.00,,,0.00,0,Wunderground v.1.15,2013-02-22 10:30:00,
2013-02-22 03:35:00,31.0,21.3,30.02,West,274,0.0,15.0,67,0.00,,,0.00,0,Wunderground v.1.15,2013-02-22 10:35:00,
2013-02-22 03:45:00,31.1,21.4,30.02,West,274,0.0,15.0,67,0.00,,,0.00,0,Wunderground v.1.15,2013-02-22 10:45:00,
2013-02-22 03:55:00,31.1,21.4,30.02,West,274,0.0,15.0,67,0.00,,,0.00,0,Wunderground v.1.15,2013-02-22 10:55:00,
2013-02-22 04:00:00,31.2,21.5,30.02,West,274,0.0,15.0,67,0.00,,,0.00,0,Wunderground v.1.15,2013-02-22 11:00:00,
2013-02-22 04:10:00,31.4,21.7,30.02,West,273,0.0,15.0,67,0.00,,,0.00,0,Wunderground v.1.15,2013-02-22 11:10:00,
2013-02-22 04:20:00,31.4,21.7,30.02,West,271,0.0,15.0,67,0.00,,,0.00,0,Wunderground v.1.15,2013-02-22 11:20:00,
2013-02-22 04:30:00,31.4,21.7,30.03,West,269,0.0,15.0,67,0.00,,,0.00,0,Wunderground v.1.15,2013-02-22 11:30:00,
2013-02-22 04:40:00,31.2,21.9,30.03,West,259,0.0,15.0,68,0.00,,,0.00,0,Wunderground v.1.15,2013-02-22 11:40:00,
2013-02-22 04:45:00,31.2,21.9,30.03,WSW,257,0.0,15.0,68,0.00,,,0.00,0,Wunderground v.1.15,2013-02-22 11:45:00,
2013-02-22 04:55:00,31.1,21.8,30.04,WSW,257,0.0,15.0,68,0.00,,,0.00,0,Wunderground v.1.15,2013-02-22 11:55:00,
2013-02-22 05:00:00,31.0,21.7,30.04,WSW,257,0.0,15.0,68,0.00,,,0.00,0,Wunderground v.1.15,2013-02-22 12:00:00,
2013-02-22 05:10:00,30.8,21.8,30.04,WSW,257,0.0,15.0,69,0.00,,,0.00,0,Wunderground v.1.15,2013-02-22 12:10:00,
2013-02-22 05:20:00,30.7,21.7,30.05,WSW,257,0.0,15.0,69,0.00,,,0.00,0,Wunderground v.1.15,2013-02-22 12:20:00,
2013-02-22 05:30:00,30.5,21.5,30.05,WSW,254,0.0,15.0,69,0.00,,,0.00,0,Wunderground v.1.15,2013-02-22 12:30:00,
2013-02-22 05:35:00,30.4,21.8,30.05,West,266,1.0,15.0,70,0.00,,,0.00,0,Wunderground v.1.15,2013-02-22 12:35:00,
2013-02-22 05:40:00,30.3,21.7,30.05,West,261,1.0,15.0,70,0.00,,,0.00,0,Wunderground v.1.15,2013-02-22 12:40:00,
2013-02-22 05:50:00,30.1,21.5,30.05,SW,231,0.0,15.0,70,0.00,,,0.00,0,Wunderground v.1.15,2013-02-22 12:50:00,
2013-02-22 06:00:00,29.8,21.5,30.05,WSW,257,0.0,15.0,71,0.00,,,0.00,0,Wunderground v.1.15,2013-02-22 13:00:00,
2013-02-22 06:05:00,29.5,21.3,30.05,West,269,0.0,15.0,71,0.00,,,0.00,0,Wunderground v.1.15,2013-02-22 13:05:00,
2013-02-22 06:15:00,29.0,21.1,30.05,West,264,0.0,15.0,72,0.00,,,0.00,0,Wunderground v.1.15,2013-02-22 13:15:00,
2013-02-22 06:20:00,28.9,21.3,30.05,West,264,0.0,15.0,73,0.00,,,0.00,0,Wunderground v.1.15,2013-02-22 13:20:00,
2013-02-22 06:30:00,28.5,20.9,30.05,West,264,0.0,15.0,73,0.00,,,0.00,0,Wunderground v.1.15,2013-02-22 13:30:00,
2013-02-22 06:40:00,28.3,21.1,30.06,West,263,0.0,15.0,74,0.00,,,0.00,0,Wunderground v.1.15,2013-02-22 13:40:00,
2013-02-22 06:50:00,28.2,21.0,30.06,West,263,0.0,15.0,74,0.00,,,0.00,0,Wunderground v.1.15,2013-02-22 13:50:00,
2013-02-22 06:55:00,28.1,20.9,30.06,West,263,0.0,15.0,74,0.00,,,0.00,7,Wunderground v.1.15,2013-02-22 13:55:00,
2013-02-22 07:00:00,28.2,21.0,30.07,West,266,0.0,15.0,74,0.00,,,0.00,12,Wunderground v.1.15,2013-02-22 14:00:00,
2013-02-22 07:10:00,28.5,20.9,30.07,West,274,1.0,1.0,73,0.00,,,0.00,18,Wunderground v.1.15,2013-02-22 14:10:00,
2013-02-22 07:15:00,28.7,21.1,30.07,West,274,0.0,15.0,73,0.00,,,0.00,19,Wunderground v.1.15,2013-02-22 14:15:00,
2013-02-22 07:26:00,29.1,21.2,30.08,West,275,0.0,15.0,72,0.00,,,0.00,40,Wunderground v.1.15,2013-02-22 14:26:00,
2013-02-22 07:35:00,29.6,21.3,30.09,West,273,0.0,0.0,71,0.00,,,0.00,49,Wunderground v.1.15,2013-02-22 14:35:00,
2013-02-22 07:40:00,29.8,21.2,30.09,West,273,0.0,0.0,70,0.00,,,0.00,54,Wunderground v.1.15,2013-02-22 14:40:00,
2013-02-22 07:45:00,30.0,21.4,30.09,WSW,251,0.0,0.0,70,0.00,,,0.00,88,Wunderground v.1.15,2013-02-22 14:45:00,
2013-02-22 08:00:00,30.9,21.9,30.09,SSW,209,1.0,2.0,69,0.00,,,0.00,49,Wunderground v.1.15,2013-02-22 15:00:00,
2013-02-22 08:05:00,31.2,21.5,30.10,SW,228,1.0,2.0,67,0.00,,,0.00,44,Wunderground v.1.15,2013-02-22 15:05:00,
2013-02-22 08:10:00,31.3,21.6,30.10,South,172,2.0,4.0,67,0.00,,,0.00,69,Wunderground v.1.15,2013-02-22 15:10:00,
2013-02-22 08:20:00,32.0,21.9,30.11,SSW,213,3.0,5.0,66,0.00,,,0.00,330,Wunderground v.1.15,2013-02-22 15:20:00,
2013-02-22 08:25:00,32.4,21.9,30.10,SW,223,3.0,5.0,65,0.00,,,0.00,371,Wunderground v.1.15,2013-02-22 15:25:00,
2013-02-22 08:35:00,34.2,22.5,30.11,WSW,242,3.0,3.0,62,0.00,,,0.00,232,Wunderground v.1.15,2013-02-22 15:35:00,
2013-02-22 08:40:00,34.7,22.2,30.11,SSW,212,3.0,4.0,60,0.00,,,0.00,220,Wunderground v.1.15,2013-02-22 15:40:00,
2013-02-22 08:50:00,34.8,21.9,30.11,SSW,197,2.0,3.0,59,0.00,,,0.00,209,Wunderground v.1.15,2013-02-22 15:50:00,
2013-02-22 08:55:00,34.6,22.1,30.11,West,261,2.0,3.0,60,0.00,,,0.00,167,Wunderground v.1.15,2013-02-22 15:55:00,
2013-02-22 09:00:00,34.9,22.0,30.11,SW,223,2.0,2.0,59,0.00,,,0.00,418,Wunderground v.1.15,2013-02-22 16:00:00,
2013-02-22 09:10:00,35.2,21.9,30.10,SSW,197,3.0,4.0,58,0.00,,,0.00,441,Wunderground v.1.15,2013-02-22 16:10:00,
2013-02-22 09:20:00,35.3,22.0,30.10,SW,221,3.0,3.0,58,0.00,,,0.00,262,Wunderground v.1.15,2013-02-22 16:20:00,
2013-02-22 09:30:00,35.4,22.1,30.10,South,184,2.0,3.0,58,0.00,,,0.00,211,Wunderground v.1.15,2013-02-22 16:30:00,
2013-02-22 09:35:00,35.5,22.2,30.10,SW,214,2.0,4.0,58,0.00,,,0.00,262,Wunderground v.1.15,2013-02-22 16:35:00,
2013-02-22 09:45:00,35.3,22.0,30.09,South,174,3.0,6.0,58,0.00,,,0.00,380,Wunderground v.1.15,2013-02-22 16:45:00,
2013-02-22 09:50:00,35.4,22.1,30.09,SW,217,4.0,5.0,58,0.00,,,0.00,141,Wunderground v.1.15,2013-02-22 16:50:00,
2013-02-22 10:00:00,36.2,22.8,30.09,SSW,195,2.0,2.0,58,0.00,,,0.00,288,Wunderground v.1.15,2013-02-22 17:00:00,
2013-02-22 10:10:00,36.5,22.7,30.09,South,175,5.0,8.0,57,0.00,,,0.00,782,Wunderground v.1.15,2013-02-22 17:10:00,
2013-02-22 10:20:00,38.1,22.0,30.09,South,181,6.0,8.0,52,0.00,,,0.00,684,Wunderground v.1.15,2013-02-22 17:20:00,
2013-02-22 10:25:00,38.0,22.4,30.09,SSW,192,6.0,8.0,53,0.00,,,0.00,151,Wunderground v.1.15,2013-02-22 17:25:00,
2013-02-22 10:35:00,37.5,21.9,30.09,South,179,5.0,11.0,53,0.00,,,0.00,283,Wunderground v.1.15,2013-02-22 17:35:00,
2013-02-22 10:40:00,37.4,22.3,30.09,SSE,163,5.0,5.0,54,0.00,,,0.00,399,Wunderground v.1.15,2013-02-22 17:40:00,
2013-02-22 10:50:00,38.3,22.2,30.09,SSW,195,6.0,6.0,52,0.00,,,0.00,308,Wunderground v.1.15,2013-02-22 17:50:00,
2013-02-22 10:55:00,38.7,22.1,30.08,SSW,195,5.0,6.0,51,0.00,,,0.00,323,Wunderground v.1.15,2013-02-22 17:55:00,
2013-02-22 11:00:00,38.9,21.8,30.09,SW,217,4.0,8.0,50,0.00,,,0.00,207,Wunderground v.1.15,2013-02-22 18:00:00,
2013-02-22 11:10:00,38.2,21.6,30.09,South,190,4.0,4.0,51,0.00,,,0.00,114,Wunderground v.1.15,2013-02-22 18:10:00,
2013-02-22 11:20:00,37.9,21.8,30.08,WSW,246,2.0,2.0,52,0.00,,,0.00,185,Wunderground v.1.15,2013-02-22 18:20:00,
2013-02-22 11:25:00,38.2,21.6,30.08,SSW,205,2.0,8.0,51,0.00,,,0.00,213,Wunderground v.1.15,2013-02-22 18:25:00,
2013-02-22 11:35:00,38.9,21.8,30.07,South,182,3.0,5.0,50,0.00,,,0.00,446,Wunderground v.1.15,2013-02-22 18:35:00,
2013-02-22 11:40:00,39.6,22.0,30.07,SSW,208,3.0,3.0,49,0.00,,,0.00,258,Wunderground v.1.15,2013-02-22 18:40:00,
2013-02-22 11:50:00,40.8,21.6,30.07,SW,225,5.0,5.0,46,0.00,,,0.00,758,Wunderground v.1.15,2013-02-22 18:50:00,
2013-02-22 11:55:00,41.0,21.3,30.07,South,188,5.0,6.0,45,0.00,,,0.00,803,Wunderground v.1.15,2013-02-22 18:55:00,
2013-02-22 12:05:00,41.6,21.8,30.05,SSE,157,5.0,10.0,45,0.00,,,0.00,271,Wunderground v.1.15,2013-02-22 19:05:00,
2013-02-22 12:15:00,40.7,21.5,30.06,SSW,192,5.0,5.0,46,0.00,,,0.00,100,Wunderground v.1.15,2013-02-22 19:15:00,
2013-02-22 12:20:00,40.4,21.7,30.06,SW,222,2.0,2.0,47,0.00,,,0.00,81,Wunderground v.1.15,2013-02-22 19:20:00,
2013-02-22 12:30:00,39.0,25.0,30.06,NNW,327,1.0,1.0,57,0.00,,,0.00,69,Wunderground v.1.15,2013-02-22 19:30:00,
2013-02-22 12:35:00,38.5,25.8,30.05,NW,308,1.0,2.0,60,0.00,,,0.00,76,Wunderground v.1.15,2013-02-22 19:35:00,
2013-02-22 12:45:00,37.7,27.7,30.06,NW,315,1.0,2.0,67,0.00,,,0.00,84,Wunderground v.1.15,2013-02-22 19:45:00,
2013-02-22 12:55:00,36.7,28.5,30.05,NW,312,1.0,2.0,72,0.00,,,0.00,158,Wunderground v.1.15,2013-02-22 19:55:00,
2013-02-22 13:00:00,36.3,28.8,30.05,NNW,330,0.0,2.0,74,0.00,,,0.00,350,Wunderground v.1.15,2013-02-22 20:00:00,
2013-02-22 13:10:00,36.5,28.7,30.04,North,355,0.0,2.0,73,0.00,,,0.00,206,Wunderground v.1.15,2013-02-22 20:10:00,
2013-02-22 13:20:00,37.4,30.5,30.04,NNW,336,0.0,2.0,76,0.00,,,0.00,253,Wunderground v.1.15,2013-02-22 20:20:00,
2013-02-22 13:25:00,38.2,29.3,30.03,NW,320,0.0,2.0,70,0.00,,,0.00,306,Wunderground v.1.15,2013-02-22 20:25:00,
2013-02-22 13:35:00,39.4,26.7,30.03,WSW,250,0.0,2.0,60,0.00,,,0.00,227,Wunderground v.1.15,2013-02-22 20:35:00,
2013-02-22 13:40:00,39.6,27.2,30.03,WSW,258,0.0,2.0,61,0.00,,,0.00,232,Wunderground v.1.15,2013-02-22 20:40:00,
2013-02-22 13:50:00,39.8,25.4,30.03,SSW,207,2.0,2.0,56,0.00,,,0.00,178,Wunderground v.1.15,2013-02-22 20:50:00,
2013-02-22 14:00:00,39.7,24.0,30.03,West,263,1.0,3.0,53,0.00,,,0.00,144,Wunderground v.1.15,2013-02-22 21:00:00,
2013-02-22 14:10:00,39.6,25.6,30.03,NW,325,1.0,1.0,57,0.00,,,0.00,97,Wunderground v.1.15,2013-02-22 21:10:00,
2013-02-22 14:20:00,39.3,26.2,30.03,NNW,336,0.0,2.0,59,0.00,,,0.00,98,Wunderground v.1.15,2013-02-22 21:20:00,
2013-02-22 14:25:00,39.3,27.4,30.03,WNW,300,0.0,2.0,62,0.00,,,0.00,127,Wunderground v.1.15,2013-02-22 21:25:00,
2013-02-22 14:35:00,39.6,24.7,30.02,North,355,0.0,2.0,55,0.00,,,0.00,125,Wunderground v.1.15,2013-02-22 21:35:00,
2013-02-22 14:45:00,39.9,23.2,30.02,WNW,291,0.0,2.0,51,0.00,,,0.00,111,Wunderground v.1.15,2013-02-22 21:45:00,
2013-02-22 14:55:00,40.7,22.0,30.01,NW,315,1.0,2.0,47,0.00,,,0.00,163,Wunderground v.1.15,2013-02-22 21:55:00,
2013-02-22 15:00:00,41.1,21.3,30.01,WNW,292,1.0,2.0,45,0.00,,,0.00,174,Wunderground v.1.15,2013-02-22 22:00:00,
2013-02-22 15:05:00,41.3,20.5,30.01,NW,319,1.0,2.0,43,0.00,,,0.00,142,Wunderground v.1.15,2013-02-22 22:05:00,
2013-02-22 15:15:00,42.2,19.6,30.01,NW,311,2.0,2.0,40,0.00,,,0.00,114,Wunderground v.1.15,2013-02-22 22:15:00,
2013-02-22 15:25:00,42.4,17.9,30.01,West,280,2.0,4.0,37,0.00,,,0.00,97,Wunderground v.1.15,2013-02-22 22:25:00,
2013-02-22 15:35:00,42.2,16.5,30.01,WNW,300,1.0,4.0,35,0.00,,,0.00,128,Wunderground v.1.15,2013-02-22 22:35:00,
2013-02-22 15:40:00,41.9,15.5,30.01,NW,306,1.0,7.0,34,0.00,,,0.00,102,Wunderground v.1.15,2013-02-22 22:40:00,
2013-02-22 15:50:00,41.4,15.8,30.01,WNW,299,3.0,3.0,35,0.00,,,0.00,104,Wunderground v.1.15,2013-02-22 22:50:00,
2013-02-22 16:00:00,41.1,14.8,30.01,NW,307,2.0,2.0,34,0.00,,,0.00,90,Wunderground v.1.15,2013-02-22 23:00:00,
2013-02-22 16:10:00,41.0,14.7,30.01,NNW,339,3.0,4.0,34,0.00,,,0.00,72,Wunderground v.1.15,2013-02-22 23:10:00,
2013-02-22 16:15:00,40.9,15.3,30.01,NW,311,3.0,6.0,35,0.00,,,0.00,83,Wunderground v.1.15,2013-02-22 23:15:00,
2013-02-22 16:25:00,40.8,15.9,30.01,NNW,337,4.0,7.0,36,0.00,,,0.00,84,Wunderground v.1.15,2013-02-22 23:25:00,
2013-02-22 16:35:00,40.8,14.6,30.02,WNW,291,4.0,7.0,34,0.00,,,0.00,74,Wunderground v.1.15,2013-02-22 23:35:00,
2013-02-22 16:40:00,41.1,14.8,30.02,WNW,288,3.0,3.0,34,0.00,,,0.00,84,Wunderground v.1.15,2013-02-22 23:40:00,
2013-02-22 16:50:00,41.4,12.2,30.02,NW,308,3.0,7.0,30,0.00,,,0.00,54,Wunderground v.1.15,2013-02-22 23:50:00,
2013-02-22 16:55:00,41.4,13.0,30.02,NW,307,3.0,7.0,31,0.00,,,0.00,37,Wunderground v.1.15,2013-02-22 23:55:00,
2013-02-22 17:00:00,41.5,13.8,30.02,NW,310,2.0,2.0,32,0.00,,,0.00,28,Wunderground v.1.15,2013-02-23 00:00:00,
2013-02-22 17:10:00,41.2,12.8,30.02,NW,310,2.0,4.0,31,0.00,,,0.00,18,Wunderground v.1.15,2013-02-23 00:10:00,
2013-02-22 17:15:00,41.0,12.6,30.03,NW,315,3.0,4.0,31,0.00,,,0.00,16,Wunderground v.1.15,2013-02-23 00:15:00,
2013-02-22 17:25:00,40.6,12.3,30.03,NW,313,2.0,3.0,31,0.00,,,0.00,21,Wunderground v.1.15,2013-02-23 00:25:00,
2013-02-22 17:35:00,39.7,15.5,30.04,NW,304,3.0,7.0,37,0.00,,,0.00,14,Wunderground v.1.15,2013-02-23 00:35:00,
2013-02-22 17:45:00,38.7,17.0,30.05,NW,311,3.0,8.0,41,0.00,,,0.00,9,Wunderground v.1.15,2013-02-23 00:45:00,
2013-02-22 17:50:00,38.3,17.2,30.05,NNW,328,5.0,5.0,42,0.00,,,0.00,7,Wunderground v.1.15,2013-02-23 00:50:00,
2013-02-22 18:00:00,37.9,17.9,30.06,NW,315,6.0,6.0,44,0.00,,,0.00,0,Wunderground v.1.15,2013-02-23 01:00:00,
2013-02-22 18:05:00,37.7,18.2,30.06,NW,319,7.0,9.0,45,0.00,,,0.00,0,Wunderground v.1.15,2013-02-23 01:05:00,
2013-02-22 18:15:00,37.4,18.5,30.07,NW,317,7.0,9.0,46,0.00,,,0.00,0,Wunderground v.1.15,2013-02-23 01:15:00,
2013-02-22 18:25:00,36.9,19.5,30.08,North,5,9.0,11.0,49,0.00,,,0.00,0,Wunderground v.1.15,2013-02-23 01:25:00,
2013-02-22 18:30:00,36.1,21.9,30.09,NW,319,10.0,13.0,56,0.00,,,0.00,0,Wunderground v.1.15,2013-02-23 01:30:00,
2013-02-22 18:40:00,33.8,23.3,30.10,NW,305,10.0,10.0,65,0.00,,,0.00,0,Wunderground v.1.15,2013-02-23 01:40:00,
2013-02-22 18:50:00,32.4,24.0,30.10,NNW,340,9.0,9.0,71,0.00,,,0.00,0,Wunderground v.1.15,2013-02-23 01:50:00,
2013-02-22 18:55:00,32.0,24.0,30.11,NNW,330,8.0,9.0,72,0.00,,,0.00,0,Wunderground v.1.15,2013-02-23 01:55:00,
2013-02-22 19:05:00,31.5,23.8,30.11,NW,322,6.0,7.0,73,0.00,,,0.00,0,Wunderground v.1.15,2013-02-23 02:05:00,
2013-02-22 19:10:00,31.3,24.0,30.11,NW,305,5.0,5.0,74,0.00,,,0.00,0,Wunderground v.1.15,2013-02-23 02:10:00,
2013-02-22 19:20:00,31.3,23.0,30.11,NW,319,5.0,5.0,71,0.00,,,0.00,0,Wunderground v.1.15,2013-02-23 02:20:00,
2013-02-22 19:30:00,32.1,22.4,30.12,WNW,291,5.0,8.0,67,0.00,,,0.00,0,Wunderground v.1.15,2013-02-23 02:30:00,
2013-02-22 19:40:00,32.5,22.0,30.12,NW,320,3.0,3.0,65,0.00,,,0.00,0,Wunderground v.1.15,2013-02-23 02:40:00,
2013-02-22 19:50:00,32.8,21.2,30.13,NW,322,3.0,3.0,62,0.00,,,0.00,0,Wunderground v.1.15,2013-02-23 02:50:00,
2013-02-22 19:55:00,32.9,20.9,30.13,WNW,300,2.0,3.0,61,0.00,,,0.00,0,Wunderground v.1.15,2013-02-23 02:55:00,
2013-02-22 20:05:00,33.0,20.6,30.13,NW,315,1.0,2.0,60,0.00,,,0.00,0,Wunderground v.1.15,2013-02-23 03:05:00,
2013-02-22 20:10:00,33.0,20.2,30.13,NW,315,1.0,1.0,59,0.00,,,0.00,0,Wunderground v.1.15,2013-02-23 03:10:00,
2013-02-22 20:20:00,32.8,19.2,30.13,WNW,302,1.0,1.0,57,0.00,,,0.00,0,Wunderground v.1.15,2013-02-23 03:20:00,
2013-02-22 20:25:00,32.6,19.0,30.14,NW,313,2.0,2.0,57,0.00,,,0.00,0,Wunderground v.1.15,2013-02-23 03:25:00,
2013-02-22 20:35:00,32.2,18.7,30.14,NW,308,4.0,8.0,57,0.00,,,0.00,0,Wunderground v.1.15,2013-02-23 03:35:00,
2013-02-22 20:40:00,32.1,18.2,30.14,NNW,332,4.0,4.0,56,0.00,,,0.00,0,Wunderground v.1.15,2013-02-23 03:40:00,
2013-02-22 20:50:00,31.7,17.8,30.14,WNW,286,3.0,6.0,56,0.00,,,0.00,0,Wunderground v.1.15,2013-02-23 03:50:00,
2013-02-22 21:00:00,31.4,17.5,30.15,West,281,1.0,1.0,56,0.00,,,0.00,0,Wunderground v.1.15,2013-02-23 04:00:00,
2013-02-22 21:05:00,31.2,16.9,30.16,NW,310,0.0,2.0,55,0.00,,,0.00,0,Wunderground v.1.15,2013-02-23 04:05:00,
2013-02-22 21:15:00,31.1,16.4,30.17,NW,313,2.0,2.0,54,0.00,,,0.00,0,Wunderground v.1.15,2013-02-23 04:15:00,
2013-02-22 21:20:00,31.1,16.4,30.17,WNW,303,2.0,2.0,54,0.00,,,0.00,0,Wunderground v.1.15,2013-02-23 04:20:00,
2013-02-22 21:30:00,30.7,16.4,30.17,NW,313,1.0,1.0,55,0.00,,,0.00,0,Wunderground v.1.15,2013-02-23 04:30:00,
2013-02-22 21:40:00,30.2,16.0,30.18,WNW,300,1.0,2.0,55,0.00,,,0.00,0,Wunderground v.1.15,2013-02-23 04:40:00,
2013-02-22 21:45:00,30.1,15.9,30.18,NW,326,1.0,2.0,55,0.00,,,0.00,0,Wunderground v.1.15,2013-02-23 04:45:00,
2013-02-22 21:55:00,29.8,16.0,30.20,NW,316,1.0,2.0,56,0.00,,,0.00,0,Wunderground v.1.15,2013-02-23 04:55:00,
2013-02-22 22:00:00,29.6,15.8,30.20,NW,315,0.0,2.0,56,0.00,,,0.00,0,Wunderground v.1.15,2013-02-23 05:00:00,
2013-02-22 22:05:00,29.5,15.7,30.20,NW,309,0.0,2.0,56,0.00,,,0.00,0,Wunderground v.1.15,2013-02-23 05:05:00,
2013-02-22 22:10:00,29.3,15.9,30.20,NW,309,0.0,2.0,57,0.00,,,0.00,0,Wunderground v.1.15,2013-02-23 05:10:00,
2013-02-22 22:20:00,28.7,15.8,30.20,WNW,299,0.0,2.0,58,0.00,,,0.00,0,Wunderground v.1.15,2013-02-23 05:20:00,
2013-02-22 22:25:00,28.3,15.4,30.19,WNW,288,0.0,2.0,58,0.00,,,0.00,0,Wunderground v.1.15,2013-02-23 05:25:00,
2013-02-22 22:35:00,27.7,15.2,30.19,WNW,287,0.0,2.0,59,0.00,,,0.00,0,Wunderground v.1.15,2013-02-23 05:35:00,
2013-02-22 22:40:00,27.4,15.3,30.19,WNW,290,0.0,2.0,60,0.00,,,0.00,0,Wunderground v.1.15,2013-02-23 05:40:00,
2013-02-22 22:50:00,27.0,15.3,30.19,WNW,294,0.0,2.0,61,0.00,,,0.00,0,Wunderground v.1.15,2013-02-23 05:50:00,